Time;durP1;ratioP1;P1;durP2;ratioP2;P2;SDS_P1;SDS_P2;PMS_P1;PMS_P2;Temp;Humidity;BMP_temperature;BMP_pressure;BME280_temperature;BME280_humidity;BME280_pressure;Samples;Min_cycle;Max_cycle;Signal;HPM_P1;HPM_P2
2023/02/12 00:01:25;;;;;;;6.15;1.90;;;;;;;;;;5070494;28;20044;-75
2023/02/12 00:03:56;;;;;;;8.23;2.08;;;;;;;;;;5088435;28;20048;-75
2023/02/12 00:06:35;;;;;;;9.60;1.90;;;;;;;;;;5104963;28;20055;-75
2023/02/12 00:09:06;;;;;;;7.28;2.30;;;;;;;;;;5108333;28;20058;-77
2023/02/12 00:11:36;;;;;;;8.23;2.22;;;;;;;;;;5072691;28;20040;-79
2023/02/12 00:14:06;;;;;;;4.38;1.88;;;;;;;;;;5088812;28;20043;-77
2023/02/12 00:16:37;;;;;;;8.20;2.72;;;;;;;;;;5071871;28;20201;-76
2023/02/12 00:19:09;;;;;;;5.10;2.20;;;;;;;;;;5098377;28;20047;-77
2023/02/12 00:21:57;;;;;;;5.35;2.25;;;;;;;;;;5108660;28;20402;-77
2023/02/12 00:24:38;;;;;;;3.38;2.20;;;;;;;;;;5108047;28;20383;-76
2023/02/12 00:27:08;;;;;;;4.55;2.22;;;;;;;;;;5105488;28;20161;-76
2023/02/12 00:29:39;;;;;;;9.27;1.95;;;;;;;;;;5104694;28;20047;-78
2023/02/12 00:32:09;;;;;;;9.35;2.17;;;;;;;;;;5107176;28;20071;-77
2023/02/12 00:34:40;;;;;;;7.60;2.30;;;;;;;;;;5107612;28;20066;-77
2023/02/12 00:37:12;;;;;;;7.47;2.05;;;;;;;;;;5101253;28;20044;-77
2023/02/12 00:39:43;;;;;;;6.88;2.47;;;;;;;;;;5096848;28;20054;-76
2023/02/12 00:42:13;;;;;;;7.95;2.20;;;;;;;;;;5077056;28;20040;-77
2023/02/12 00:44:46;;;;;;;10.45;2.67;;;;;;;;;;5079084;28;20054;-76
2023/02/12 00:47:16;;;;;;;5.53;2.40;;;;;;;;;;5095989;28;20055;-75
2023/02/12 00:49:50;;;;;;;11.15;2.88;;;;;;;;;;5107844;28;20058;-74
2023/02/12 00:52:20;;;;;;;11.98;2.72;;;;;;;;;;5107579;28;20052;-76
2023/02/12 00:54:50;;;;;;;9.43;2.83;;;;;;;;;;5087200;28;20043;-75
2023/02/12 00:57:21;;;;;;;9.80;2.67;;;;;;;;;;5068306;28;20052;-76
2023/02/12 00:59:53;;;;;;;8.20;2.58;;;;;;;;;;5087313;28;20044;-76
2023/02/12 01:02:24;;;;;;;7.80;2.25;;;;;;;;;;5087006;28;20044;-76
2023/02/12 01:05:14;;;;;;;4.00;2.58;;;;;;;;;;5024579;28;20049;-76
2023/02/12 01:07:49;;;;;;;8.63;2.88;;;;;;;;;;5024750;28;20053;-76
2023/02/12 01:10:22;;;;;;;4.85;2.40;;;;;;;;;;5024550;28;20057;-77
2023/02/12 01:12:53;;;;;;;6.50;2.33;;;;;;;;;;5022884;28;20045;-76
2023/02/12 01:15:23;;;;;;;6.57;2.85;;;;;;;;;;5023444;28;20068;-74
2023/02/12 01:18:06;;;;;;;3.97;2.65;;;;;;;;;;5023882;28;20057;-76
2023/02/12 01:20:40;;;;;;;5.47;2.28;;;;;;;;;;5024247;28;20057;-75
2023/02/12 01:23:10;;;;;;;7.07;3.20;;;;;;;;;;5033806;28;20064;-77
2023/02/12 01:25:40;;;;;;;7.07;2.92;;;;;;;;;;5086840;28;20052;-76
2023/02/12 01:28:17;;;;;;;4.07;2.75;;;;;;;;;;5086293;28;20054;-76
2023/02/12 01:30:51;;;;;;;7.13;2.40;;;;;;;;;;5087453;28;20059;-77
2023/02/12 01:33:27;;;;;;;9.00;2.80;;;;;;;;;;5067887;28;20059;-76
2023/02/12 01:36:05;;;;;;;6.07;2.70;;;;;;;;;;5087078;28;20526;-76
2023/02/12 01:38:37;;;;;;;6.60;2.50;;;;;;;;;;5086993;28;20051;-77
2023/02/12 01:41:16;;;;;;;7.30;2.78;;;;;;;;;;5068519;28;20059;-76
2023/02/12 01:44:17;;;;;;;3.65;2.40;;;;;;;;;;5092220;28;20068;-76
2023/02/12 01:46:52;;;;;;;8.15;2.65;;;;;;;;;;5074965;28;20052;-77
2023/02/12 01:49:27;;;;;;;7.03;2.60;;;;;;;;;;5093534;28;20048;-76
2023/02/12 01:52:20;;;;;;;4.53;2.85;;;;;;;;;;5074985;28;20052;-78
2023/02/12 01:54:54;;;;;;;7.95;2.75;;;;;;;;;;5075357;28;20430;-77
2023/02/12 01:57:27;;;;;;;5.90;2.47;;;;;;;;;;5075141;28;20052;-77
2023/02/12 02:00:00;;;;;;;5.88;2.20;;;;;;;;;;5075244;28;20399;-77
2023/02/12 02:02:45;;;;;;;5.35;2.78;;;;;;;;;;5098176;28;20062;-78
2023/02/12 02:05:44;;;;;;;5.28;2.42;;;;;;;;;;5093427;28;20055;-78
2023/02/12 02:08:14;;;;;;;6.63;2.40;;;;;;;;;;5069239;28;20102;-78
2023/02/12 02:10:45;;;;;;;4.05;3.00;;;;;;;;;;5074728;28;20495;-78
2023/02/12 02:16:18;;;;;;;4.97;3.00;;;;;;;;;;5089934;28;20040;-78
2023/02/12 02:18:49;;;;;;;11.30;3.17;;;;;;;;;;5074689;28;20039;-78
2023/02/12 02:22:01;;;;;;;5.30;2.90;;;;;;;;;;5058825;28;20060;-77
2023/02/12 02:24:50;;;;;;;12.23;3.20;;;;;;;;;;5074083;28;20040;-75
2023/02/12 02:27:47;;;;;;;13.15;3.38;;;;;;;;;;5093099;28;20074;-76
2023/02/12 02:30:33;;;;;;;5.60;3.13;;;;;;;;;;5074910;28;20051;-75
2023/02/12 02:33:12;;;;;;;5.07;3.05;;;;;;;;;;5093021;28;20854;-77
2023/02/12 02:36:05;;;;;;;7.80;3.58;;;;;;;;;;5092352;28;20047;-76
2023/02/12 02:38:50;;;;;;;8.45;3.40;;;;;;;;;;5074796;28;20442;-75
2023/02/12 02:41:38;;;;;;;7.93;3.50;;;;;;;;;;5096103;28;20044;-77
2023/02/12 02:44:21;;;;;;;6.15;3.35;;;;;;;;;;5087056;28;20051;-76
2023/02/12 02:47:09;;;;;;;7.28;3.65;;;;;;;;;;5101059;28;20059;-76
2023/02/12 02:49:52;;;;;;;9.43;3.90;;;;;;;;;;5101658;28;20048;-74
2023/02/12 02:52:51;;;;;;;6.10;3.70;;;;;;;;;;5081737;28;20052;-75
2023/02/12 02:55:26;;;;;;;8.95;3.50;;;;;;;;;;5100493;28;20040;-75
2023/02/12 02:58:06;;;;;;;8.50;3.42;;;;;;;;;;5100287;28;20491;-75
2023/02/12 03:00:48;;;;;;;7.85;3.25;;;;;;;;;;5110013;28;20044;-76
2023/02/12 03:03:32;;;;;;;6.78;3.72;;;;;;;;;;5109708;28;20052;-75
2023/02/12 03:06:38;;;;;;;8.70;3.80;;;;;;;;;;5109917;28;20040;-77
2023/02/12 03:09:29;;;;;;;14.40;3.83;;;;;;;;;;5056496;28;20067;-78
2023/02/12 03:12:05;;;;;;;10.25;3.90;;;;;;;;;;5109999;28;20043;-76
2023/02/12 03:14:41;;;;;;;9.35;4.10;;;;;;;;;;5109714;28;20043;-77
2023/02/12 03:17:23;;;;;;;7.68;3.88;;;;;;;;;;5090863;28;20051;-77
2023/02/12 03:20:23;;;;;;;8.10;3.63;;;;;;;;;;5109844;28;20052;-76
2023/02/12 03:23:29;;;;;;;8.00;4.00;;;;;;;;;;5092128;28;20051;-76
2023/02/12 03:26:11;;;;;;;10.85;4.18;;;;;;;;;;5079517;28;20064;-77
2023/02/12 03:28:42;;;;;;;8.18;4.00;;;;;;;;;;5109539;28;20043;-76
2023/02/12 03:31:23;;;;;;;7.20;3.38;;;;;;;;;;5110336;28;20076;-77
2023/02/12 03:34:18;;;;;;;9.15;4.45;;;;;;;;;;5109002;28;20051;-76
2023/02/12 03:37:08;;;;;;;5.20;3.67;;;;;;;;;;5090766;28;20058;-76
2023/02/12 03:40:30;;;;;;;7.38;4.03;;;;;;;;;;5109132;28;20052;-77
2023/02/12 03:43:08;;;;;;;5.72;4.05;;;;;;;;;;5092741;28;20082;-77
2023/02/12 03:45:50;;;;;;;5.75;3.90;;;;;;;;;;5108977;28;20052;-76
2023/02/12 03:48:49;;;;;;;8.95;4.57;;;;;;;;;;5107377;28;20517;-77
2023/02/12 03:51:24;;;;;;;9.20;4.28;;;;;;;;;;5109008;28;20044;-77
2023/02/12 03:54:27;;;;;;;7.88;4.20;;;;;;;;;;5045938;28;20065;-77
2023/02/12 03:57:06;;;;;;;5.95;3.95;;;;;;;;;;5046053;28;20420;-77
2023/02/12 03:59:41;;;;;;;11.50;4.82;;;;;;;;;;5045600;28;20405;-77
2023/02/12 04:02:15;;;;;;;7.82;4.78;;;;;;;;;;5045391;28;20067;-77
2023/02/12 04:04:47;;;;;;;10.98;4.30;;;;;;;;;;5045656;28;20060;-75
2023/02/12 04:07:17;;;;;;;11.10;4.15;;;;;;;;;;5044050;28;20064;-74
2023/02/12 04:09:48;;;;;;;8.48;5.03;;;;;;;;;;5045649;28;20132;-74
2023/02/12 04:12:42;;;;;;;10.27;4.13;;;;;;;;;;5081196;28;20055;-76
2023/02/12 04:15:31;;;;;;;;;;;;;;;;;;5109312;28;20043;-74
2023/02/12 04:18:27;;;;;;;5.32;4.15;;;;;;;;;;5108625;28;19946;-74
2023/02/12 04:21:17;;;;;;;9.90;4.13;;;;;;;;;;5108685;28;20050;-75
2023/02/12 04:24:07;;;;;;;10.68;4.60;;;;;;;;;;5108614;28;20066;-73
2023/02/12 04:27:11;;;;;;;9.40;4.50;;;;;;;;;;5108222;28;20044;-75
2023/02/12 04:29:47;;;;;;;9.55;4.25;;;;;;;;;;5108065;28;20047;-74
2023/02/12 04:32:27;;;;;;;;;;;;;;;;;;5108854;28;20066;-74
2023/02/12 04:35:14;;;;;;;10.00;4.30;;;;;;;;;;5107979;28;19930;-75
2023/02/12 04:37:51;;;;;;;;;;;;;;;;;;5108345;28;20055;-73
2023/02/12 04:40:22;;;;;;;7.63;4.80;;;;;;;;;;5107779;28;19919;-75
2023/02/12 04:42:54;;;;;;;9.52;4.78;;;;;;;;;;5108204;28;20058;-74
2023/02/12 04:45:30;;;;;;;11.65;4.90;;;;;;;;;;5107907;28;20040;-74
2023/02/12 04:48:01;;;;;;;7.60;4.18;;;;;;;;;;5107704;28;20066;-74
2023/02/12 04:50:42;;;;;;;6.72;3.97;;;;;;;;;;5107198;28;20047;-73
2023/02/12 04:53:28;;;;;;;5.82;4.22;;;;;;;;;;5108088;28;20540;-74
2023/02/12 04:55:59;;;;;;;5.68;3.70;;;;;;;;;;5106979;28;20054;-74
2023/02/12 04:58:30;;;;;;;7.20;3.97;;;;;;;;;;5107640;28;20045;-74
2023/02/12 05:01:00;;;;;;;8.00;4.57;;;;;;;;;;5107442;28;20055;-74
2023/02/12 05:03:30;;;;;;;12.73;4.57;;;;;;;;;;5106877;28;20043;-78
2023/02/12 05:06:08;;;;;;;15.23;4.30;;;;;;;;;;5107714;28;20054;-77
2023/02/12 05:08:38;;;;;;;10.18;4.32;;;;;;;;;;5107627;28;20517;-76
2023/02/12 05:11:18;;;;;;;14.30;5.00;;;;;;;;;;5091167;28;20048;-76
2023/02/12 05:14:10;;;;;;;7.70;4.35;;;;;;;;;;5107045;28;20050;-76
2023/02/12 05:16:40;;;;;;;6.07;3.50;;;;;;;;;;5088875;28;20055;-76
2023/02/12 05:19:19;;;;;;;6.25;3.58;;;;;;;;;;5106809;28;20046;-77
2023/02/12 05:21:50;;;;;;;6.97;4.07;;;;;;;;;;5089404;28;20494;-77
2023/02/12 05:24:20;;;;;;;13.90;4.60;;;;;;;;;;5107344;28;20066;-76
2023/02/12 05:26:52;;;;;;;7.80;4.22;;;;;;;;;;5107910;28;20048;-77
2023/02/12 05:29:22;;;;;;;4.43;3.35;;;;;;;;;;5107585;28;20071;-76
2023/02/12 05:32:00;;;;;;;9.18;4.38;;;;;;;;;;5107858;28;20066;-75
2023/02/12 05:34:31;;;;;;;6.53;3.83;;;;;;;;;;5107145;28;20043;-76
2023/02/12 05:37:01;;;;;;;10.70;4.47;;;;;;;;;;5106790;28;20040;-77
2023/02/12 05:39:31;;;;;;;9.05;4.50;;;;;;;;;;5106949;28;20043;-77
2023/02/12 05:42:20;;;;;;;;;;;;;;;;;;;;;
2023/02/12 05:44:52;;;;;;;7.53;4.55;;;;;;;;;;5107183;28;20047;-76
2023/02/12 05:47:23;;;;;;;8.95;4.90;;;;;;;;;;5106624;28;20052;-77
2023/02/12 05:49:53;;;;;;;10.38;4.85;;;;;;;;;;5106814;28;20050;-76
2023/02/12 05:52:23;;;;;;;5.75;4.15;;;;;;;;;;5088373;28;20414;-76
2023/02/12 05:54:53;;;;;;;8.38;5.03;;;;;;;;;;5107533;28;20063;-77
2023/02/12 05:57:24;;;;;;;7.10;4.47;;;;;;;;;;5088778;28;20422;-75
2023/02/12 05:59:54;;;;;;;5.85;4.25;;;;;;;;;;5106582;28;20040;-76
2023/02/12 06:02:25;;;;;;;6.43;3.72;;;;;;;;;;5106583;28;20047;-76
2023/02/12 06:04:55;;;;;;;5.93;4.60;;;;;;;;;;5105430;28;20048;-76
2023/02/12 06:07:25;;;;;;;6.90;3.95;;;;;;;;;;5106851;28;20047;-77
2023/02/12 06:10:06;;;;;;;20.27;4.95;;;;;;;;;;5088511;28;20052;-78
2023/02/12 06:12:36;;;;;;;15.13;5.10;;;;;;;;;;5106869;28;20043;-75
2023/02/12 06:15:07;;;;;;;11.77;5.05;;;;;;;;;;5107115;28;20048;-77
2023/02/12 06:17:38;;;;;;;8.60;4.75;;;;;;;;;;5073112;28;20052;-75
2023/02/12 06:20:09;;;;;;;24.40;4.75;;;;;;;;;;5107476;28;20529;-77
2023/02/12 06:22:40;;;;;;;19.40;5.13;;;;;;;;;;5106806;28;20046;-77
2023/02/12 06:25:10;;;;;;;6.68;4.90;;;;;;;;;;5106554;28;20044;-76
2023/02/12 06:28:10;;;;;;;6.03;4.60;;;;;;;;;;5003830;28;20058;-77
2023/02/12 06:30:43;;;;;;;10.30;4.45;;;;;;;;;;5006464;28;20517;-76
2023/02/12 06:33:19;;;;;;;9.63;4.32;;;;;;;;;;5007603;28;20057;-76
2023/02/12 06:35:50;;;;;;;7.25;4.38;;;;;;;;;;5007558;28;20077;-77
2023/02/12 06:38:20;;;;;;;7.40;5.32;;;;;;;;;;5007429;28;20235;-77
2023/02/12 06:40:51;;;;;;;6.57;4.47;;;;;;;;;;5007205;28;20045;-76
2023/02/12 06:43:21;;;;;;;14.60;4.93;;;;;;;;;;5007673;28;20544;-77
2023/02/12 06:46:11;;;;;;;10.02;4.63;;;;;;;;;;5007651;28;20061;-75
2023/02/12 06:48:51;;;;;;;7.75;4.47;;;;;;;;;;5007677;28;20062;-77
2023/02/12 06:51:22;;;;;;;9.95;3.97;;;;;;;;;;5029075;28;20064;-76
2023/02/12 06:53:55;;;;;;;8.57;4.25;;;;;;;;;;5110045;28;20046;-77
2023/02/12 06:56:35;;;;;;;10.55;4.15;;;;;;;;;;5110496;28;20046;-77
2023/02/12 06:59:06;;;;;;;8.52;4.07;;;;;;;;;;5109774;28;20052;-77
2023/02/12 07:01:36;;;;;;;7.43;4.20;;;;;;;;;;5110229;28;20039;-76
2023/02/12 07:04:06;;;;;;;9.32;3.97;;;;;;;;;;5109853;28;20052;-75
2023/02/12 07:06:37;;;;;;;6.32;3.67;;;;;;;;;;5090853;28;20044;-76
2023/02/12 07:09:08;;;;;;;6.97;3.85;;;;;;;;;;5110217;28;20149;-76
2023/02/12 07:11:42;;;;;;;8.38;3.78;;;;;;;;;;5109867;28;20502;-76
2023/02/12 07:14:16;;;;;;;5.70;4.20;;;;;;;;;;5110070;28;20067;-76
2023/02/12 07:16:47;;;;;;;5.00;3.88;;;;;;;;;;5109859;28;20055;-75
2023/02/12 07:19:26;;;;;;;6.05;4.05;;;;;;;;;;5092015;28;20050;-76
2023/02/12 07:22:05;;;;;;;5.72;3.85;;;;;;;;;;5109665;28;20043;-76
2023/02/12 07:24:37;;;;;;;4.97;3.47;;;;;;;;;;5090917;28;20051;-76
2023/02/12 07:27:09;;;;;;;5.38;3.47;;;;;;;;;;5108847;28;20494;-76
2023/02/12 07:29:51;;;;;;;;;;;;;;;;;;;;;
2023/02/12 07:32:22;;;;;;;5.22;3.35;;;;;;;;;;5107739;28;20067;-75
2023/02/12 07:34:56;;;;;;;8.00;3.40;;;;;;;;;;5109309;28;20054;-76
2023/02/12 07:37:27;;;;;;;6.22;3.53;;;;;;;;;;5109032;28;20043;-76
2023/02/12 07:39:58;;;;;;;4.25;3.20;;;;;;;;;;5109072;28;20051;-76
2023/02/12 07:42:39;;;;;;;;;;;;;;;;;;;;;
2023/02/12 07:45:10;;;;;;;8.43;3.92;;;;;;;;;;5090041;28;20502;-76
2023/02/12 07:47:40;;;;;;;5.90;3.42;;;;;;;;;;5108909;28;20052;-76
2023/02/12 07:50:11;;;;;;;4.70;3.80;;;;;;;;;;5108751;28;20058;-76
2023/02/12 07:52:41;;;;;;;5.00;3.60;;;;;;;;;;5108306;28;20685;-76
2023/02/12 07:55:12;;;;;;;8.52;3.63;;;;;;;;;;5109212;28;20043;-76
2023/02/12 07:57:43;;;;;;;4.32;2.95;;;;;;;;;;5108581;28;20409;-76
2023/02/12 08:00:15;;;;;;;4.32;2.90;;;;;;;;;;5108940;28;20046;-76
2023/02/12 08:02:52;;;;;;;6.55;3.47;;;;;;;;;;5090666;28;20040;-76
2023/02/12 08:05:23;;;;;;;4.55;3.30;;;;;;;;;;5108674;28;20410;-76
2023/02/12 08:07:53;;;;;;;9.70;4.07;;;;;;;;;;5108451;28;20047;-76
2023/02/12 08:10:26;;;;;;;6.55;3.80;;;;;;;;;;5108593;28;20043;-76
2023/02/12 08:12:59;;;;;;;5.57;4.05;;;;;;;;;;5090090;28;20048;-76
2023/02/12 08:15:29;;;;;;;6.72;3.80;;;;;;;;;;5108641;28;20047;-76
2023/02/12 08:18:00;;;;;;;7.22;4.05;;;;;;;;;;5108821;28;20048;-76
2023/02/12 08:20:33;;;;;;;6.35;4.10;;;;;;;;;;5108891;28;20047;-76
2023/02/12 08:23:03;;;;;;;5.20;3.95;;;;;;;;;;5108019;28;20040;-76
2023/02/12 08:25:33;;;;;;;7.25;4.35;;;;;;;;;;5089782;28;20051;-76
2023/02/12 08:28:04;;;;;;;5.35;3.85;;;;;;;;;;5108185;28;20403;-77
2023/02/12 08:30:36;;;;;;;10.23;3.80;;;;;;;;;;5108071;28;20043;-76
2023/02/12 08:33:16;;;;;;;6.38;3.40;;;;;;;;;;5107401;28;20687;-76
2023/02/12 08:36:13;;;;;;;3.83;2.97;;;;;;;;;;5107716;28;20048;-77
2023/02/12 08:38:44;;;;;;;7.65;3.30;;;;;;;;;;5108739;28;20040;-76
2023/02/12 08:41:18;;;;;;;8.43;3.70;;;;;;;;;;5108163;28;20047;-77
2023/02/12 08:43:55;;;;;;;6.07;3.65;;;;;;;;;;5108421;28;20036;-76
2023/02/12 08:46:28;;;;;;;6.15;3.60;;;;;;;;;;5107479;28;20129;-77
2023/02/12 08:49:05;;;;;;;8.27;3.22;;;;;;;;;;5108122;28;20047;-77
2023/02/12 08:51:38;;;;;;;10.60;4.22;;;;;;;;;;5107856;28;20051;-74
2023/02/12 08:54:11;;;;;;;6.60;3.42;;;;;;;;;;5107493;28;20051;-74
2023/02/12 08:56:44;;;;;;;5.32;3.70;;;;;;;;;;5107536;28;20058;-76
2023/02/12 08:59:16;;;;;;;5.95;4.03;;;;;;;;;;5108169;28;20040;-76
2023/02/12 09:01:51;;;;;;;5.57;3.13;;;;;;;;;;5107919;28;20046;-77
2023/02/12 09:04:25;;;;;;;10.45;3.40;;;;;;;;;;5107456;28;20054;-76
2023/02/12 09:06:55;;;;;;;4.90;3.38;;;;;;;;;;5108146;28;20406;-76
2023/02/12 09:09:25;;;;;;;5.00;3.28;;;;;;;;;;5088899;28;20048;-76
2023/02/12 09:11:55;;;;;;;6.43;3.83;;;;;;;;;;5107498;28;20047;-76
2023/02/12 09:14:26;;;;;;;7.32;3.53;;;;;;;;;;5107580;28;20081;-76
2023/02/12 09:16:57;;;;;;;8.02;4.13;;;;;;;;;;5107360;28;20050;-77
2023/02/12 09:19:27;;;;;;;7.72;3.63;;;;;;;;;;5107419;28;20043;-76
2023/02/12 09:21:57;;;;;;;13.40;3.28;;;;;;;;;;5107223;28;20492;-76
2023/02/12 09:24:27;;;;;;;5.47;3.80;;;;;;;;;;5107193;28;20047;-77
2023/02/12 09:26:58;;;;;;;5.68;3.47;;;;;;;;;;5107332;28;20509;-77
2023/02/12 09:29:30;;;;;;;4.13;3.00;;;;;;;;;;5107192;28;20047;-77
2023/02/12 09:32:04;;;;;;;4.90;3.30;;;;;;;;;;5107772;28;20050;-77
2023/02/12 09:34:35;;;;;;;11.80;3.60;;;;;;;;;;5107369;28;20044;-77
2023/02/12 09:37:16;;;;;;;;;;;;;;;;;;;;;
2023/02/12 09:39:47;;;;;;;4.78;3.10;;;;;;;;;;5106545;28;20410;-76
2023/02/12 09:42:37;;;;;;;6.45;3.50;;;;;;;;;;5107565;28;20418;-76
2023/02/12 09:45:25;;;;;;;6.72;3.75;;;;;;;;;;5107070;28;20426;-76
2023/02/12 09:48:11;;;;;;;6.30;3.85;;;;;;;;;;5107217;28;20058;-76
2023/02/12 09:50:59;;;;;;;8.77;3.70;;;;;;;;;;5107013;28;20055;-77
2023/02/12 09:53:31;;;;;;;8.48;3.58;;;;;;;;;;5106939;28;20062;-77
2023/02/12 09:56:01;;;;;;;7.65;3.70;;;;;;;;;;5089439;28;20070;-77
2023/02/12 09:58:40;;;;;;;8.90;3.90;;;;;;;;;;5107033;28;20047;-77
2023/02/12 10:01:17;;;;;;;6.55;4.30;;;;;;;;;;5107053;28;20048;-77
2023/02/12 10:03:51;;;;;;;7.13;3.90;;;;;;;;;;5107924;28;20337;-77
2023/02/12 10:06:37;;;;;;;7.13;4.30;;;;;;;;;;5111127;28;20043;-77
2023/02/12 10:09:34;;;;;;;6.95;4.18;;;;;;;;;;5111148;28;20051;-77
2023/02/12 10:12:21;;;;;;;8.45;4.60;;;;;;;;;;5110879;28;20058;-76
2023/02/12 10:15:00;;;;;;;6.90;4.45;;;;;;;;;;5111116;28;20044;-77
2023/02/12 10:18:01;;;;;;;6.57;4.10;;;;;;;;;;5110943;28;20055;-77
2023/02/12 10:20:45;;;;;;;8.77;4.35;;;;;;;;;;5111496;28;20486;-77
2023/02/12 10:23:38;;;;;;;7.63;3.83;;;;;;;;;;5111202;28;20050;-74
2023/02/12 10:26:25;;;;;;;9.23;4.25;;;;;;;;;;5110801;28;20046;-75
2023/02/12 10:29:04;;;;;;;5.90;3.30;;;;;;;;;;5094411;28;20039;-76
2023/02/12 10:31:48;;;;;;;4.03;3.15;;;;;;;;;;5110723;28;20048;-76
2023/02/12 10:34:23;;;;;;;6.80;3.08;;;;;;;;;;5110965;28;20044;-75
2023/02/12 10:37:19;;;;;;;4.93;3.03;;;;;;;;;;5109954;28;20047;-76
2023/02/12 10:39:58;;;;;;;5.20;3.00;;;;;;;;;;5097010;28;20048;-76
2023/02/12 10:42:42;;;;;;;8.05;2.58;;;;;;;;;;5110192;28;20043;-76
2023/02/12 10:45:19;;;;;;;3.72;2.22;;;;;;;;;;5092836;28;20050;-76
2023/02/12 10:48:22;;;;;;;3.15;2.20;;;;;;;;;;5110263;28;20494;-76
2023/02/12 10:51:03;;;;;;;3.92;2.30;;;;;;;;;;5091781;28;20055;-78
2023/02/12 10:53:40;;;;;;;4.72;1.85;;;;;;;;;;5109711;28;20502;-76
2023/02/12 10:56:19;;;;;;;4.13;2.13;;;;;;;;;;5110053;28;20054;-76
2023/02/12 10:58:53;;;;;;;2.55;1.90;;;;;;;;;;5110485;28;20043;-76
2023/02/12 11:01:36;;;;;;;3.72;2.10;;;;;;;;;;5109720;28;20051;-78
2023/02/12 11:04:29;;;;;;;7.72;1.95;;;;;;;;;;5110254;28;20051;-77
2023/02/12 11:07:03;;;;;;;7.28;1.77;;;;;;;;;;5091175;28;20052;-80
2023/02/12 11:09:44;;;;;;;6.00;2.03;;;;;;;;;;5110460;28;20078;-76
2023/02/12 11:12:22;;;;;;;4.88;1.70;;;;;;;;;;5104200;28;20399;-79
2023/02/12 11:15:00;;;;;;;3.83;2.00;;;;;;;;;;5088933;28;20490;-77
2023/02/12 11:18:03;;;;;;;6.20;1.80;;;;;;;;;;5080667;28;20064;-76
2023/02/12 11:20:47;;;;;;;4.47;1.60;;;;;;;;;;5088841;28;20048;-77
2023/02/12 11:23:26;;;;;;;8.20;2.00;;;;;;;;;;5103302;28;20054;-78
2023/02/12 11:26:06;;;;;;;6.88;1.75;;;;;;;;;;5109669;28;20054;-78
2023/02/12 11:28:36;;;;;;;4.35;1.80;;;;;;;;;;5109359;28;20049;-78
2023/02/12 11:31:13;;;;;;;5.28;2.10;;;;;;;;;;5109613;28;20036;-78
2023/02/12 11:33:44;;;;;;;8.25;2.00;;;;;;;;;;5091976;28;20051;-79
2023/02/12 11:36:26;;;;;;;6.03;1.90;;;;;;;;;;5109404;28;20533;-78
2023/02/12 11:38:58;;;;;;;7.57;2.10;;;;;;;;;;5109014;28;20043;-79
2023/02/12 11:41:35;;;;;;;4.50;1.75;;;;;;;;;;5109313;28;20395;-78
2023/02/12 11:44:18;;;;;;;9.23;2.28;;;;;;;;;;5109330;28;20054;-78
2023/02/12 11:46:56;;;;;;;5.00;2.08;;;;;;;;;;5091152;28;20494;-77
2023/02/12 11:49:33;;;;;;;3.22;1.80;;;;;;;;;;5108880;28;20470;-81
2023/02/12 11:52:05;;;;;;;5.65;1.90;;;;;;;;;;5108746;28;20399;-79
2023/02/12 11:54:47;;;;;;;3.13;1.77;;;;;;;;;;5109041;28;20062;-77
2023/02/12 11:57:38;;;;;;;8.15;1.98;;;;;;;;;;5109019;28;20070;-76
2023/02/12 12:00:34;;;;;;;5.70;1.88;;;;;;;;;;5108222;28;20430;-79
2023/02/12 12:03:17;;;;;;;6.97;1.90;;;;;;;;;;5101032;28;20056;-80
2023/02/12 12:05:59;;;;;;;4.40;2.20;;;;;;;;;;5108616;28;20066;-77
2023/02/12 12:08:32;;;;;;;2.67;1.85;;;;;;;;;;5108303;28;20043;-79
2023/02/12 12:11:35;;;;;;;3.55;1.80;;;;;;;;;;5107537;28;20047;-78
2023/02/12 12:14:27;;;;;;;8.02;1.80;;;;;;;;;;5107963;28;20051;-78
2023/02/12 12:20:20;;;;;;;5.13;1.95;;;;;;;;;;5054513;28;20052;-78
2023/02/12 12:23:10;;;;;;;9.10;2.47;;;;;;;;;;5108217;28;20051;-78
2023/02/12 12:25:48;;;;;;;3.53;2.40;;;;;;;;;;5108497;28;20050;-79
2023/02/12 12:28:43;;;;;;;2.72;2.00;;;;;;;;;;5107478;28;20495;-80
2023/02/12 12:31:53;;;;;;;7.40;2.20;;;;;;;;;;5094886;28;20066;-82
2023/02/12 12:34:26;;;;;;;9.57;2.90;;;;;;;;;;5108374;28;20063;-77
2023/02/12 12:37:34;;;;;;;9.13;2.13;;;;;;;;;;5108146;28;20042;-78
2023/02/12 12:40:19;;;;;;;8.32;3.08;;;;;;;;;;5108033;28;20058;-79
2023/02/12 12:42:55;;;;;;;5.35;2.30;;;;;;;;;;5090899;28;20047;-78
2023/02/12 12:45:33;;;;;;;6.70;2.42;;;;;;;;;;5108128;28;20047;-79
2023/02/12 12:48:29;;;;;;;5.82;2.85;;;;;;;;;;5107788;28;20074;-79
2023/02/12 12:51:25;;;;;;;3.55;2.10;;;;;;;;;;5107991;28;20043;-78
2023/02/12 12:54:07;;;;;;;10.52;2.70;;;;;;;;;;5107959;28;20073;-78
2023/02/12 12:56:49;;;;;;;5.90;2.35;;;;;;;;;;5107484;28;20047;-77
2023/02/12 12:59:45;;;;;;;8.93;2.17;;;;;;;;;;5107692;28;20490;-77
2023/02/12 13:02:52;;;;;;;8.07;2.63;;;;;;;;;;5107661;28;20494;-79
2023/02/12 13:05:30;;;;;;;3.35;2.20;;;;;;;;;;5107657;28;20498;-79
2023/02/12 13:08:18;;;;;;;6.00;2.00;;;;;;;;;;5108060;28;20047;-78
2023/02/12 13:11:13;;;;;;;4.70;2.42;;;;;;;;;;5108261;28;20043;-78
2023/02/12 13:13:47;;;;;;;5.43;2.80;;;;;;;;;;5107218;28;20054;-77
2023/02/12 13:16:50;;;;;;;;;;;;;;;;;;;;;
2023/02/12 13:19:59;;;;;;;6.25;2.92;;;;;;;;;;5103559;28;20058;-75
2023/02/12 13:22:47;;;;;;;3.90;2.55;;;;;;;;;;5095307;28;20069;-76
2023/02/12 13:25:39;;;;;;;5.22;3.10;;;;;;;;;;5089614;28;20050;-76
2023/02/12 13:28:18;;;;;;;4.50;3.25;;;;;;;;;;5107685;28;20046;-75
2023/02/12 13:30:50;;;;;;;6.45;3.92;;;;;;;;;;5089486;28;20055;-78
2023/02/12 13:33:27;;;;;;;5.20;3.45;;;;;;;;;;5107488;28;20039;-77
2023/02/12 13:36:00;;;;;;;14.50;8.82;;;;;;;;;;5107318;28;20061;-82
2023/02/12 13:39:24;;;;;;;;;;;;;;;;;;;;;
2023/02/12 13:42:24;;;;;;;4.32;2.38;;;;;;;;;;5107336;28;20545;-82
2023/02/12 13:45:21;;;;;;;5.22;2.47;;;;;;;;;;5054525;28;20438;-82
2023/02/12 13:47:55;;;;;;;4.88;2.47;;;;;;;;;;5088268;28;20063;-78
2023/02/12 13:50:51;;;;;;;6.43;2.38;;;;;;;;;;5088318;28;20050;-80
2023/02/12 13:54:00;;;;;;;3.30;2.60;;;;;;;;;;5107188;28;20051;-79
2023/02/12 13:56:46;;;;;;;3.75;2.50;;;;;;;;;;5107583;28;20416;-81
2023/02/12 13:59:35;;;;;;;3.35;2.10;;;;;;;;;;5089141;28;20059;-80
2023/02/12 14:02:11;;;;;;;7.50;2.60;;;;;;;;;;5107328;28;20402;-77
2023/02/12 14:05:20;;;;;;;5.88;2.33;;;;;;;;;;5107271;28;20054;-75
2023/02/12 14:07:52;;;;;;;4.07;2.17;;;;;;;;;;5107120;28;20048;-76
2023/02/12 14:10:39;;;;;;;4.45;2.55;;;;;;;;;;5087922;28;20044;-79
2023/02/12 14:13:15;;;;;;;;;;;;;;;;;;5107944;28;20487;-76
2023/02/12 14:15:53;;;;;;;4.20;2.60;;;;;;;;;;5106733;28;19923;-76
2023/02/12 14:18:34;;;;;;;5.10;3.10;;;;;;;;;;5107106;28;20051;-76
2023/02/12 14:21:09;;;;;;;4.68;2.60;;;;;;;;;;5107266;28;20043;-77
2023/02/12 14:23:41;;;;;;;8.10;2.47;;;;;;;;;;5107105;28;20044;-76
2023/02/12 14:26:23;;;;;;;5.03;2.47;;;;;;;;;;5106491;28;20050;-77
2023/02/12 14:29:16;;;;;;;5.07;2.50;;;;;;;;;;5107054;28;20524;-77
2023/02/12 14:31:46;;;;;;;3.05;2.33;;;;;;;;;;5106812;28;20047;-77
2023/02/12 14:34:17;;;;;;;4.38;1.77;;;;;;;;;;5106824;28;20050;-75
2023/02/12 14:36:57;;;;;;;4.10;1.73;;;;;;;;;;5106829;28;20051;-74
2023/02/12 14:39:29;;;;;;;2.15;1.70;;;;;;;;;;5089193;28;20082;-77
2023/02/12 14:42:09;;;;;;;3.67;2.38;;;;;;;;;;5087796;28;20502;-78
2023/02/12 14:44:55;;;;;;;3.15;2.33;;;;;;;;;;5106718;28;20055;-75
2023/02/12 14:47:31;;;;;;;6.82;2.28;;;;;;;;;;5106835;28;20054;-77
2023/02/12 14:50:24;;;;;;;4.18;2.13;;;;;;;;;;5106569;28;20051;-75
2023/02/12 14:53:31;;;;;;;6.07;2.20;;;;;;;;;;5110500;28;20052;-77
2023/02/12 14:56:02;;;;;;;3.03;2.20;;;;;;;;;;5108602;28;20047;-79
2023/02/12 14:58:33;;;;;;;3.45;1.73;;;;;;;;;;5110075;28;20047;-76
2023/02/12 15:01:05;;;;;;;3.58;2.08;;;;;;;;;;5110520;28;20394;-76
2023/02/12 15:03:48;;;;;;;2.53;2.03;;;;;;;;;;5109604;28;20059;-79
2023/02/12 15:06:26;;;;;;;3.42;2.63;;;;;;;;;;5110264;28;20047;-78
2023/02/12 15:09:16;;;;;;;2.65;1.90;;;;;;;;;;5110017;28;20055;-79
2023/02/12 15:11:54;;;;;;;9.40;2.83;;;;;;;;;;5110044;28;20039;-77
2023/02/12 15:14:34;;;;;;;4.05;1.90;;;;;;;;;;5109832;28;20059;-77
2023/02/12 15:17:29;;;;;;;2.75;1.75;;;;;;;;;;5108207;28;20051;-77
2023/02/12 15:20:05;;;;;;;2.70;1.60;;;;;;;;;;5109975;28;20486;-76
2023/02/12 15:22:40;;;;;;;4.88;1.88;;;;;;;;;;5109307;28;20121;-76
2023/02/12 15:25:29;;;;;;;3.17;1.95;;;;;;;;;;5108880;28;20043;-77
2023/02/12 15:28:13;;;;;;;3.08;1.60;;;;;;;;;;5109034;28;20048;-77
2023/02/12 15:30:45;;;;;;;4.28;1.73;;;;;;;;;;5109717;28;20118;-80
2023/02/12 15:33:32;;;;;;;3.22;1.80;;;;;;;;;;5109449;28;20032;-77
2023/02/12 15:36:05;;;;;;;5.03;2.05;;;;;;;;;;5108939;28;20050;-78
2023/02/12 15:38:40;;;;;;;5.20;1.92;;;;;;;;;;5090205;28;20078;-79
2023/02/12 15:41:33;;;;;;;4.13;1.85;;;;;;;;;;5109171;28;20052;-76
2023/02/12 15:44:25;;;;;;;3.92;1.80;;;;;;;;;;5089980;28;20535;-77
2023/02/12 15:47:11;;;;;;;6.28;1.90;;;;;;;;;;5109177;28;20051;-78
2023/02/12 15:49:42;;;;;;;4.50;2.08;;;;;;;;;;5109309;28;20418;-77
2023/02/12 15:52:23;;;;;;;3.22;2.10;;;;;;;;;;5090789;28;20047;-76
2023/02/12 15:54:56;;;;;;;2.83;2.20;;;;;;;;;;5109857;28;20417;-78
2023/02/12 15:57:28;;;;;;;3.40;2.20;;;;;;;;;;5109478;28;20048;-78
2023/02/12 16:00:09;;;;;;;5.53;2.03;;;;;;;;;;5108482;28;20047;-77
2023/02/12 16:02:42;;;;;;;5.70;2.20;;;;;;;;;;5112338;28;20051;-78
2023/02/12 16:05:16;;;;;;;4.20;2.13;;;;;;;;;;5109051;28;20047;-78
2023/02/12 16:07:48;;;;;;;4.18;2.13;;;;;;;;;;5108632;28;20408;-76